McGrath, Alaska
Current Conditions -  °F | °C
As of 12:53 PM on Friday 31 Oct 2014 (Local Time) from PAMC Reporting Station
Light Snow Light Snow  
Wind Chill:   Ceiling: 2300
Heat Index: 16°   Visibility: 8mi
Dew Point: 10°   Wind: 5mph
Humidity: 77%   Direction: 340°NNW
Pressure: 29.28"   Gusts: NA
Location:  62.96°N, 155.6°W
Report Text: PAMC 312053Z 34004KT 8SM -SN OVC023 M09/M12 A2928 RMK SLP924 P0000 60000 T10891122 56009 VIA AUTODIAL
Loading
Personal Weather Stations






























Interactive Weather Map
Tropical Storm Tracking
New forecast layout! Learn more

10-Day Weather Forecast

Advertisements
Track Severe Weather on mobile